Aérodrome :
LOGIN :

S'inscrire | Disclaimer

   EN    FR    IT 

 










Légende :    VFR   VFR Marginal   IFR   IFR Intensif   IFR Très Intensif
Visi : 
Plafond : 
>= 8 km
>= 3000ft
5 à 8 km
1000 à 3000 ft
1500m à 5 km
500 à 1000 ft
800 à 1500m
200 à 500 ft
< 800m
< 200 ft
Symboles :   Orages  Brouillard  Fortes neiges  Fortes précipitations  Vent > 20 kt
SIGMETs :   Divers  Orages  Givrage  Turbulence  Onde Orograph.  Cendres Volcan.







- Altitude de l'aérodrome : 3 ft
- Code IATA : LWR


EHLW - Leuuwarden Air Base

DERNIER METAR :
  • 242125Z AUTO 25013KT 9999 FEW048 SCT091 BKN096 07/03 Q1021 BLU

METARs EXPIRÉS :
  • 242055Z AUTO 23011KT 9999 BKN051 05/03 Q1021 BLU
  • 242025Z AUTO 22008KT 9999 NCD 04/02 Q1022 BLU
  • 241955Z AUTO 24008KT 9999 NCD 05/02 Q1022 BLU
  • 241925Z AUTO 25009KT 9999 NCD 05/02 Q1023 BLU
  • 241855Z AUTO 26007KT 9999 NCD 05/02 Q1023 BLU

TAF TAF EHLW
Valide du 24 à 22h jusqu'au 25 à 10h UTC


242112Z 2422/2510 24012KT CAVOK
TEMPO 2422/2510 FEW010 SCT015CB BKN020
BECMG 2500/2502 30020G35KT
PROB40
TEMPO 2504/2507 30025G43KT TSRAGS FEW008 SCT015CB BKN018
BECMG 2508/2510 33020G35KT
Pas de NOTAMs connus pour ce terrain.



MET'MAP, la Météo Aéronautique d'un coup d'oeil ! - Copyright ORBIFLY Décembre 2007 - Disclaimer

ORBIFLY MET'MAP TEAM :

Programmation & Développement : Alexandra Zaïnal
Conception & Développement : Baudouin d'Aumeries
Co-Programmation & Développement : Marc-Olivier Méhu
Soutien technique & logistique : Manuel Goepfert

Contact : metmap@orbifly.com




SOURCES & CREDITS :

   NOAA